createdAt,value
2019-03-15T00:01:46.848Z,2.10
2019-03-15T00:04:15.812Z,2.42
2019-03-15T00:06:44.880Z,2.55
2019-03-15T00:09:14.258Z,2.40
2019-03-15T00:11:45.594Z,2.50
2019-03-15T00:14:14.786Z,3.22
2019-03-15T00:16:45.321Z,2.87
2019-03-15T00:19:15.712Z,2.70
2019-03-15T00:21:44.707Z,3.12
2019-03-15T00:24:14.134Z,2.77
2019-03-15T00:26:43.138Z,3.60
2019-03-15T00:29:16.722Z,3.08
2019-03-15T00:31:45.745Z,3.20
2019-03-15T00:34:18.656Z,3.35
2019-03-15T00:36:49.706Z,3.40
2019-03-15T00:39:18.683Z,2.50
2019-03-15T00:41:47.702Z,3.20
2019-03-15T00:46:47.011Z,3.30
2019-03-15T00:49:18.574Z,3.27
2019-03-15T00:51:49.075Z,3.25
2019-03-15T00:54:21.091Z,2.98
2019-03-15T00:56:53.135Z,2.80
2019-03-15T00:59:22.661Z,3.22
2019-03-15T01:01:51.655Z,2.70
2019-03-15T01:04:20.685Z,3.25
2019-03-15T01:06:49.708Z,3.15
2019-03-15T01:09:18.694Z,2.80
2019-03-15T01:11:49.348Z,3.40
2019-03-15T01:14:22.405Z,2.37
2019-03-15T01:16:58.184Z,3.20
2019-03-15T01:19:28.671Z,2.92
2019-03-15T01:21:59.325Z,2.75
2019-03-15T01:24:28.340Z,3.35
2019-03-15T01:26:57.375Z,3.75
2019-03-15T01:29:26.593Z,3.20
2019-03-15T01:31:58.880Z,3.10
2019-03-15T01:34:31.267Z,3.35
2019-03-15T01:37:01.866Z,3.22
2019-03-15T01:39:32.549Z,3.45
2019-03-15T01:42:06.285Z,3.52
2019-03-15T01:44:35.585Z,3.15
2019-03-15T01:47:06.637Z,3.35
2019-03-15T01:49:35.669Z,3.33
2019-03-15T01:52:04.718Z,3.60
2019-03-15T01:54:33.681Z,3.60
2019-03-15T01:57:05.986Z,3.30
2019-03-15T01:59:34.947Z,3.15
2019-03-15T02:02:04.893Z,3.52
2019-03-15T02:04:33.868Z,4.17
2019-03-15T02:07:02.940Z,3.20
2019-03-15T02:09:31.925Z,3.70
2019-03-15T02:12:05.121Z,3.70
2019-03-15T02:14:34.169Z,3.80
2019-03-15T02:17:04.324Z,3.80
2019-03-15T02:19:36.391Z,4.00
2019-03-15T02:22:08.534Z,3.72
2019-03-15T02:24:40.671Z,3.37
2019-03-15T02:27:09.639Z,3.95
2019-03-15T02:29:38.646Z,3.80
2019-03-15T02:32:07.672Z,2.90
2019-03-15T02:34:36.635Z,3.58
2019-03-15T02:37:06.956Z,4.08
2019-03-15T02:39:38.057Z,3.15
2019-03-15T02:42:08.709Z,3.25
2019-03-15T02:44:39.231Z,3.72
2019-03-15T02:47:12.325Z,3.55
2019-03-15T02:49:41.280Z,3.30
2019-03-15T02:52:11.493Z,2.75
2019-03-15T02:54:42.118Z,3.72
2019-03-15T02:57:11.066Z,3.42
2019-03-15T02:59:40.047Z,3.72
2019-03-15T03:02:09.012Z,3.72
2019-03-15T03:04:42.196Z,3.87
2019-03-15T03:07:11.147Z,3.27
2019-03-15T03:09:59.293Z,3.98
2019-03-15T03:12:28.264Z,3.65
2019-03-15T03:14:58.237Z,4.25
2019-03-15T03:17:29.216Z,3.65
2019-03-15T03:20:00.818Z,3.80
2019-03-15T03:22:29.924Z,4.92
2019-03-15T03:24:58.866Z,3.80
2019-03-15T03:27:27.877Z,3.95
2019-03-15T03:29:56.922Z,3.70
2019-03-15T03:32:27.464Z,3.72
2019-03-15T03:34:56.494Z,4.03
2019-03-15T03:37:28.086Z,3.33
2019-03-15T03:39:57.133Z,3.20
2019-03-15T03:42:26.118Z,2.83
2019-03-15T03:44:56.125Z,3.02
2019-03-15T03:49:56.699Z,3.22
2019-03-15T03:52:28.760Z,2.58
2019-03-15T03:54:57.843Z,2.58
2019-03-15T03:57:29.989Z,2.67
2019-03-15T04:02:28.511Z,2.45
2019-03-15T04:04:57.470Z,2.20
2019-03-15T04:07:26.439Z,2.65
2019-03-15T04:09:56.847Z,2.30
2019-03-15T04:12:27.702Z,2.50
2019-03-15T04:14:56.639Z,2.35
2019-03-15T04:17:27.238Z,2.55
2019-03-15T04:19:56.359Z,2.35
2019-03-15T04:22:25.375Z,2.60
2019-03-15T04:24:54.333Z,2.80
2019-03-15T04:27:23.301Z,2.37
2019-03-15T04:29:53.113Z,2.40
2019-03-15T04:32:22.324Z,3.37
2019-03-15T04:35:00.470Z,2.55
2019-03-15T04:37:32.339Z,3.45
2019-03-15T04:40:00.603Z,3.12
2019-03-15T04:42:29.542Z,4.40
2019-03-15T04:44:59.611Z,3.75
2019-03-15T04:49:58.424Z,3.37
2019-03-15T04:52:27.450Z,3.02
2019-03-15T04:54:56.709Z,2.92
2019-03-15T04:57:26.532Z,3.53
2019-03-15T04:59:58.728Z,3.15
2019-03-15T05:02:30.810Z,3.27
2019-03-15T05:05:02.670Z,2.67
2019-03-15T05:07:31.659Z,3.35
2019-03-15T05:10:01.150Z,3.98
2019-03-15T05:12:31.522Z,3.67
2019-03-15T05:15:03.744Z,3.92
2019-03-15T05:17:32.748Z,3.02
2019-03-15T05:20:03.572Z,3.87
2019-03-15T05:22:32.530Z,3.83
2019-03-15T05:25:03.698Z,4.33
2019-03-15T05:27:32.980Z,3.75
2019-03-15T05:30:03.982Z,4.37
2019-03-15T05:32:32.848Z,5.15
2019-03-15T05:35:01.838Z,5.50
2019-03-15T05:37:30.809Z,4.58
2019-03-15T05:40:00.917Z,5.33
2019-03-15T05:42:29.888Z,5.33
2019-03-15T05:44:58.865Z,6.80
2019-03-15T05:47:32.302Z,6.45
2019-03-15T05:50:01.392Z,6.50
2019-03-15T05:52:30.582Z,7.00
2019-03-15T05:55:05.618Z,7.05
2019-03-15T05:57:35.112Z,6.92
2019-03-15T06:00:05.625Z,7.22
2019-03-15T06:02:34.661Z,7.15
2019-03-15T06:05:05.321Z,8.20
2019-03-15T06:07:34.356Z,8.15
2019-03-15T06:10:03.321Z,8.58
2019-03-15T06:12:32.276Z,8.60
2019-03-15T06:15:06.287Z,9.03
2019-03-15T06:17:38.654Z,9.88
2019-03-15T06:20:10.105Z,9.95
2019-03-15T06:22:39.085Z,10.58
2019-03-15T06:25:10.259Z,10.78
2019-03-15T06:30:12.272Z,9.98
2019-03-15T06:32:41.229Z,11.40
2019-03-15T06:35:12.817Z,11.75
2019-03-15T06:37:41.783Z,11.93
2019-03-15T06:40:13.698Z,12.35
2019-03-15T06:42:42.374Z,11.63
2019-03-15T06:45:12.359Z,12.70
2019-03-15T06:47:48.857Z,11.57
2019-03-15T06:50:17.831Z,11.83
2019-03-15T06:52:48.434Z,12.15
2019-03-15T06:55:18.424Z,12.07
2019-03-15T06:57:48.055Z,12.03
2019-03-15T07:00:17.031Z,11.78
2019-03-15T07:02:46.319Z,11.40
2019-03-15T07:05:18.705Z,10.40
2019-03-15T07:07:54.185Z,9.23
2019-03-15T07:10:23.145Z,5.42
2019-03-15T07:12:52.131Z,5.70
2019-03-15T07:15:21.161Z,5.28
2019-03-15T07:17:50.237Z,4.27
2019-03-15T07:20:29.276Z,3.87
2019-03-15T07:22:57.906Z,4.33
2019-03-15T07:25:26.936Z,3.85
2019-03-15T07:27:56.590Z,3.33
2019-03-15T07:30:26.691Z,4.30
2019-03-15T07:33:01.685Z,4.72
2019-03-15T07:35:35.709Z,4.20
2019-03-15T07:38:07.908Z,4.47
2019-03-15T07:40:39.738Z,4.25
2019-03-15T07:43:08.844Z,4.45
2019-03-15T07:45:50.347Z,4.70
2019-03-15T07:48:22.773Z,5.45
2019-03-15T07:50:50.378Z,4.03
2019-03-15T07:53:19.452Z,3.67
2019-03-15T07:55:48.388Z,5.53
2019-03-15T07:58:17.501Z,3.50
2019-03-15T08:00:47.436Z,4.10
2019-03-15T08:03:16.792Z,3.83
2019-03-15T08:05:45.776Z,3.85
2019-03-15T08:08:14.732Z,4.50
2019-03-15T08:10:48.190Z,4.90
2019-03-15T08:13:17.166Z,4.87
2019-03-15T08:15:46.156Z,5.10
2019-03-15T08:18:15.145Z,4.47
2019-03-15T08:20:44.165Z,4.95
2019-03-15T08:23:32.494Z,3.30
2019-03-15T08:26:06.512Z,4.85
2019-03-15T08:28:36.654Z,4.87
2019-03-15T08:33:33.752Z,4.17
2019-03-15T08:36:02.767Z,4.30
2019-03-15T08:38:46.244Z,4.12
2019-03-15T08:41:06.805Z,4.33
2019-03-15T08:43:37.503Z,4.80
2019-03-15T08:46:07.706Z,4.62
2019-03-15T08:48:44.208Z,4.70
2019-03-15T08:51:13.187Z,5.40
2019-03-15T08:53:43.325Z,4.20
2019-03-15T08:56:14.732Z,4.37
2019-03-15T08:58:43.811Z,4.60
2019-03-15T09:01:12.835Z,5.08
2019-03-15T09:03:41.866Z,6.03
2019-03-15T09:06:12.383Z,4.60
2019-03-15T09:08:41.393Z,3.55
2019-03-15T09:11:10.360Z,4.37
2019-03-15T09:13:42.149Z,4.58
2019-03-15T09:16:17.160Z,5.03
2019-03-15T09:18:46.115Z,4.40
2019-03-15T09:21:15.103Z,4.50
2019-03-15T09:23:44.119Z,3.85
2019-03-15T09:26:13.267Z,3.55
2019-03-15T09:28:45.464Z,4.45
2019-03-15T09:31:18.513Z,3.42
2019-03-15T09:33:48.339Z,5.10
2019-03-15T09:36:18.941Z,3.77
2019-03-15T09:38:47.950Z,4.10
2019-03-15T09:41:31.120Z,3.35
2019-03-15T09:43:51.162Z,4.70
2019-03-15T09:46:21.574Z,4.35
2019-03-15T09:48:50.528Z,4.03
2019-03-15T09:51:19.493Z,4.97
2019-03-15T09:53:50.000Z,5.35
2019-03-15T09:56:19.043Z,4.47
2019-03-15T09:58:48.073Z,5.35
2019-03-15T10:01:33.731Z,4.45
2019-03-15T10:03:50.714Z,4.75
2019-03-15T10:06:19.768Z,6.03
2019-03-15T10:08:48.763Z,5.43
2019-03-15T10:11:20.826Z,5.00
2019-03-15T10:13:50.199Z,4.65
2019-03-15T10:16:19.212Z,3.87
2019-03-15T10:18:50.562Z,4.87
2019-03-15T10:21:18.928Z,4.90
2019-03-15T10:23:48.419Z,4.60
2019-03-15T10:26:17.389Z,4.75
2019-03-15T10:28:46.401Z,4.28
2019-03-15T10:31:17.150Z,3.52
2019-03-15T10:33:50.945Z,4.92
2019-03-15T10:36:21.400Z,3.87
2019-03-15T10:38:50.546Z,3.90
2019-03-15T10:41:20.842Z,4.08
2019-03-15T10:43:54.311Z,4.20
2019-03-15T10:46:23.458Z,3.85
2019-03-15T10:48:52.404Z,3.90
2019-03-15T10:51:21.424Z,4.00
2019-03-15T10:53:50.466Z,3.07
2019-03-15T10:56:19.455Z,3.85
2019-03-15T10:58:52.974Z,3.15
2019-03-15T11:01:19.217Z,3.75
2019-03-15T11:03:48.151Z,4.00
2019-03-15T11:06:19.654Z,3.98
2019-03-15T11:08:48.672Z,3.72
2019-03-15T11:11:17.651Z,3.90
2019-03-15T11:13:48.989Z,2.95
2019-03-15T11:16:17.311Z,3.87
2019-03-15T11:18:47.361Z,3.45
2019-03-15T11:21:16.299Z,3.50
2019-03-15T11:26:33.453Z,4.03
2019-03-15T11:29:03.684Z,3.47
2019-03-15T11:31:32.611Z,3.15
2019-03-15T11:34:01.569Z,3.58
2019-03-15T11:36:37.073Z,3.75
2019-03-15T11:39:08.118Z,3.72
2019-03-15T11:41:37.143Z,3.98
2019-03-15T11:44:06.072Z,3.53
2019-03-15T11:46:36.679Z,3.80
2019-03-15T11:49:08.335Z,3.20
2019-03-15T11:51:37.320Z,3.22
2019-03-15T11:54:06.463Z,3.02
2019-03-15T11:56:35.405Z,4.37
2019-03-15T12:01:33.456Z,4.12
2019-03-15T12:04:09.133Z,4.05
2019-03-15T12:06:37.045Z,3.75
2019-03-15T12:09:10.652Z,3.92
2019-03-15T12:11:39.620Z,4.28
2019-03-15T12:14:08.580Z,4.12
2019-03-15T12:16:39.196Z,5.08
2019-03-15T12:19:13.806Z,4.55
2019-03-15T12:21:42.894Z,4.60
2019-03-15T12:24:11.834Z,5.37
2019-03-15T12:26:41.031Z,4.03
2019-03-15T12:29:13.026Z,4.42
2019-03-15T12:31:47.732Z,5.17
2019-03-15T12:34:22.402Z,4.03
2019-03-15T12:36:51.610Z,4.58
2019-03-15T12:39:21.779Z,5.20
2019-03-15T12:41:54.673Z,4.33
2019-03-15T12:44:23.636Z,4.67
2019-03-15T12:46:52.636Z,5.05
2019-03-15T12:49:21.616Z,4.70
2019-03-15T12:51:51.328Z,4.03
2019-03-15T12:54:22.308Z,4.62
2019-03-15T12:56:53.924Z,6.15
2019-03-15T12:59:27.802Z,4.85
2019-03-15T13:01:57.396Z,5.03
2019-03-15T13:04:26.507Z,5.12
2019-03-15T13:06:55.449Z,5.77
2019-03-15T13:09:25.452Z,5.60
2019-03-15T13:11:57.472Z,5.53
2019-03-15T13:14:26.477Z,6.22
2019-03-15T13:16:55.634Z,4.75
2019-03-15T13:19:24.557Z,5.93
2019-03-15T13:21:56.909Z,5.03
2019-03-15T13:24:26.168Z,4.72
2019-03-15T13:27:07.457Z,5.05
2019-03-15T13:29:28.849Z,6.42
2019-03-15T13:31:57.827Z,4.65
2019-03-15T13:34:26.800Z,6.37
2019-03-15T13:36:55.831Z,5.10
2019-03-15T13:39:26.594Z,5.50
2019-03-15T13:41:55.679Z,5.17
2019-03-15T13:44:26.518Z,5.92
2019-03-15T13:46:57.090Z,5.42
2019-03-15T13:49:27.771Z,5.50
2019-03-15T13:51:56.729Z,5.47
2019-03-15T13:54:25.755Z,6.28
2019-03-15T13:56:54.758Z,5.67
2019-03-15T13:59:23.744Z,5.75
2019-03-15T14:01:53.873Z,5.75
2019-03-15T14:04:22.839Z,5.78
2019-03-15T14:06:58.983Z,6.05
2019-03-15T14:09:27.997Z,4.87
2019-03-15T14:11:56.961Z,5.58
2019-03-15T14:14:28.499Z,6.20
2019-03-15T14:16:57.457Z,6.15
2019-03-15T14:19:28.753Z,6.72
2019-03-15T14:22:00.880Z,6.85
2019-03-15T14:24:29.959Z,6.05
2019-03-15T14:29:28.033Z,6.90
2019-03-15T14:31:57.015Z,6.65
2019-03-15T14:34:27.889Z,8.23
2019-03-15T14:36:57.114Z,6.60
2019-03-15T14:39:27.678Z,7.80
2019-03-15T14:41:56.874Z,6.65
2019-03-15T14:44:25.970Z,8.03
2019-03-15T14:46:54.933Z,7.50
2019-03-15T14:49:28.214Z,7.47
2019-03-15T14:51:59.381Z,6.53
2019-03-15T14:54:28.644Z,7.50
2019-03-15T14:56:57.658Z,7.65
2019-03-15T14:59:26.678Z,6.58
2019-03-15T15:01:55.668Z,7.65
2019-03-15T15:04:24.804Z,6.62
2019-03-15T15:06:53.820Z,6.27
2019-03-15T15:09:23.098Z,6.30
2019-03-15T15:11:53.846Z,7.58
2019-03-15T15:14:22.876Z,8.13
2019-03-15T15:19:21.106Z,7.05
2019-03-15T15:21:52.832Z,7.00
2019-03-15T15:24:23.926Z,6.30
2019-03-15T15:26:55.081Z,6.62
2019-03-15T15:29:27.038Z,8.33
2019-03-15T15:31:56.000Z,6.75
2019-03-15T15:34:27.059Z,7.15
2019-03-15T15:36:56.029Z,7.08
2019-03-15T15:39:27.524Z,8.40
2019-03-15T15:41:58.730Z,7.53
2019-03-15T15:44:27.868Z,6.70
2019-03-15T15:46:58.129Z,7.08
2019-03-15T15:49:27.165Z,7.45
2019-03-15T15:51:57.743Z,7.25
2019-03-15T15:54:26.717Z,7.08
2019-03-15T15:56:55.670Z,8.10
2019-03-15T15:59:24.631Z,8.18
2019-03-15T16:01:53.615Z,10.23
2019-03-15T16:04:24.139Z,10.82
2019-03-15T16:06:53.149Z,11.88
2019-03-15T16:09:22.363Z,10.13
2019-03-15T16:11:51.333Z,11.20
2019-03-15T16:14:20.302Z,11.68
2019-03-15T16:16:49.361Z,10.15
2019-03-15T16:19:18.363Z,13.25
2019-03-15T16:21:47.340Z,10.65
2019-03-15T16:24:17.647Z,11.43
2019-03-15T16:26:46.618Z,12.60
2019-03-15T16:29:15.609Z,11.43
2019-03-15T16:31:44.639Z,12.05
2019-03-15T16:34:13.677Z,12.93
2019-03-15T16:36:59.171Z,13.43
2019-03-15T16:39:16.473Z,13.03
2019-03-15T16:41:45.509Z,13.32
2019-03-15T16:44:16.217Z,11.80
2019-03-15T16:46:45.201Z,13.08
2019-03-15T16:49:14.161Z,12.82
2019-03-15T16:51:43.177Z,12.53
2019-03-15T16:54:12.221Z,11.75
2019-03-15T16:56:41.250Z,11.00
2019-03-15T16:59:10.524Z,12.07
2019-03-15T17:01:42.537Z,11.05
2019-03-15T17:04:13.507Z,11.25
2019-03-15T17:06:45.391Z,13.58
2019-03-15T17:09:14.465Z,11.12
2019-03-15T17:11:43.459Z,11.85
2019-03-15T17:14:24.890Z,10.08
2019-03-15T17:16:45.437Z,10.35
2019-03-15T17:19:16.018Z,8.70
2019-03-15T17:21:45.424Z,8.90
2019-03-15T17:24:14.377Z,10.23
2019-03-15T17:26:43.351Z,8.73
2019-03-15T17:29:13.511Z,8.33
2019-03-15T17:31:42.445Z,9.18
2019-03-15T17:34:13.046Z,7.03
2019-03-15T17:36:42.034Z,6.30
2019-03-15T17:39:11.213Z,5.95
2019-03-15T17:41:40.141Z,7.13
2019-03-15T17:44:11.690Z,7.10
2019-03-15T17:46:40.716Z,6.70
2019-03-15T17:49:09.762Z,5.62
2019-03-15T17:51:38.719Z,5.65
2019-03-15T17:54:08.339Z,4.87
2019-03-15T17:56:37.334Z,5.60
2019-03-15T17:59:12.644Z,4.83
2019-03-15T18:01:40.808Z,5.05
2019-03-15T18:04:09.629Z,5.45
2019-03-15T18:06:42.608Z,5.42
2019-03-15T18:09:09.549Z,4.95
2019-03-15T18:11:41.554Z,4.90
2019-03-15T18:14:10.573Z,6.33
2019-03-15T18:16:39.742Z,4.87
2019-03-15T18:19:08.700Z,5.17
2019-03-15T18:21:45.584Z,5.22
2019-03-15T18:24:14.746Z,3.98
2019-03-15T18:26:44.016Z,4.67
2019-03-15T18:29:25.438Z,4.40
2019-03-15T18:31:43.890Z,5.75
2019-03-15T18:34:15.712Z,5.22
2019-03-15T18:36:48.622Z,4.58
2019-03-15T18:39:19.418Z,5.03
2019-03-15T18:41:50.507Z,5.30
2019-03-15T18:44:19.924Z,4.92
2019-03-15T18:46:48.871Z,5.65
2019-03-15T18:49:19.920Z,5.08
2019-03-15T18:51:48.930Z,5.40
2019-03-15T18:54:19.194Z,5.70
2019-03-15T18:56:48.206Z,6.25
2019-03-15T18:59:23.219Z,4.97
2019-03-15T19:01:55.253Z,6.37
2019-03-15T19:04:24.347Z,5.58
2019-03-15T19:06:58.768Z,5.08
2019-03-15T19:09:29.356Z,5.03
2019-03-15T19:11:58.541Z,5.00
2019-03-15T19:14:27.576Z,5.47
2019-03-15T19:16:56.537Z,6.03
2019-03-15T19:19:28.472Z,5.72
2019-03-15T19:21:57.437Z,7.10
2019-03-15T19:24:26.411Z,5.65
2019-03-15T19:26:55.452Z,4.85
2019-03-15T19:29:27.709Z,6.20
2019-03-15T19:31:57.343Z,6.00
2019-03-15T19:34:26.300Z,6.45
2019-03-15T19:36:57.073Z,7.45
2019-03-15T19:39:26.033Z,6.20
2019-03-15T19:41:56.451Z,6.28
2019-03-15T19:44:25.448Z,6.55
2019-03-15T19:46:54.483Z,6.75
2019-03-15T19:49:23.596Z,5.90
2019-03-15T19:51:52.839Z,6.58
2019-03-15T19:54:23.987Z,6.08
2019-03-15T19:56:52.957Z,6.40
2019-03-15T19:59:21.901Z,5.90
2019-03-15T20:01:56.745Z,7.92
2019-03-15T20:04:25.702Z,7.50
2019-03-15T20:09:27.424Z,7.23
2019-03-15T20:11:56.389Z,6.83
2019-03-15T20:14:25.373Z,6.72
2019-03-15T20:16:54.401Z,7.20
2019-03-15T20:19:25.863Z,6.70
2019-03-15T20:21:59.421Z,5.87
2019-03-15T20:24:29.540Z,5.55
2019-03-15T20:27:04.574Z,6.35
2019-03-15T20:29:33.530Z,5.47
2019-03-15T20:32:02.554Z,6.90
2019-03-15T20:34:31.584Z,5.37
2019-03-15T20:37:00.550Z,6.30
2019-03-15T20:39:30.415Z,5.30
2019-03-15T20:41:59.452Z,6.22
2019-03-15T20:44:29.118Z,5.80
2019-03-15T20:46:58.287Z,6.25
2019-03-15T20:49:27.284Z,6.12
2019-03-15T20:51:56.310Z,5.75
2019-03-15T20:54:25.319Z,5.92
2019-03-15T20:56:58.582Z,5.85
2019-03-15T20:59:29.261Z,5.60
2019-03-15T21:01:59.663Z,5.60
2019-03-15T21:04:30.267Z,5.65
2019-03-15T21:07:02.546Z,4.97
2019-03-15T21:09:33.004Z,4.55
2019-03-15T21:12:02.112Z,4.95
2019-03-15T21:14:31.116Z,4.40
2019-03-15T21:17:00.296Z,5.08
2019-03-15T21:19:29.267Z,4.30
2019-03-15T21:21:59.272Z,4.50
2019-03-15T21:24:28.301Z,4.37
2019-03-15T21:26:57.339Z,5.45
2019-03-15T21:32:20.595Z,3.95
2019-03-15T21:34:49.970Z,3.92
2019-03-15T21:37:18.944Z,4.85
2019-03-15T21:39:50.291Z,3.65
2019-03-15T21:42:21.098Z,3.95
2019-03-15T21:44:50.119Z,3.55
2019-03-15T21:47:21.746Z,2.80
2019-03-15T21:49:50.751Z,2.30
2019-03-15T21:52:22.370Z,2.35
2019-03-15T21:54:55.349Z,2.90
2019-03-15T21:57:25.975Z,2.30
2019-03-15T21:59:59.447Z,2.25
2019-03-15T22:02:30.126Z,2.58
2019-03-15T22:04:59.097Z,2.52
2019-03-15T22:07:28.067Z,2.02
2019-03-15T22:09:57.043Z,2.42
2019-03-15T22:12:26.027Z,2.50
2019-03-15T22:14:59.579Z,2.10
2019-03-15T22:17:31.343Z,1.82
2019-03-15T22:20:04.685Z,2.30
2019-03-15T22:22:33.669Z,1.82
2019-03-15T22:25:02.692Z,1.77
2019-03-15T22:27:31.655Z,1.72
2019-03-15T22:30:00.626Z,1.95
2019-03-15T22:32:33.017Z,1.77
2019-03-15T22:35:03.611Z,2.02
2019-03-15T22:37:35.104Z,1.90
2019-03-15T22:40:05.598Z,2.08
2019-03-15T22:42:34.598Z,1.82
2019-03-15T22:45:05.757Z,2.22
2019-03-15T22:47:40.671Z,2.02
2019-03-15T22:50:11.170Z,2.15
2019-03-15T22:52:41.204Z,1.95
2019-03-15T22:55:10.630Z,2.40
2019-03-15T22:57:39.670Z,2.62
2019-03-15T23:00:15.900Z,1.95
2019-03-15T23:02:46.633Z,2.33
2019-03-15T23:05:15.599Z,2.27
2019-03-15T23:07:44.555Z,1.98
2019-03-15T23:10:17.026Z,2.05
2019-03-15T23:12:47.692Z,1.77
2019-03-15T23:15:16.710Z,2.47
2019-03-15T23:17:45.770Z,3.10
2019-03-15T23:20:14.736Z,2.37
2019-03-15T23:22:45.224Z,1.90
2019-03-15T23:25:14.178Z,2.33
2019-03-15T23:27:44.833Z,2.42
2019-03-15T23:30:16.176Z,2.20
2019-03-15T23:32:50.668Z,2.20
2019-03-15T23:35:20.872Z,2.25
2019-03-15T23:37:53.087Z,2.20
2019-03-15T23:40:23.117Z,1.90
2019-03-15T23:42:53.357Z,1.62
2019-03-15T23:45:27.499Z,2.00
2019-03-15T23:47:56.856Z,2.10
2019-03-15T23:50:27.732Z,2.10
2019-03-15T23:53:00.360Z,2.42
2019-03-15T23:55:29.318Z,2.50
2019-03-15T23:58:04.520Z,2.42
